sensor_id;sensor_type;location;lat;lon;timestamp;P1;durP1;ratioP1;P2;durP2;ratioP2
69795;SDS011;57073;45.650;9.612;2023-05-10T00:00:39;12.27;;;6.83;;
69795;SDS011;57073;45.650;9.612;2023-05-10T00:05:39;9.70;;;6.18;;
69795;SDS011;57073;45.650;9.612;2023-05-10T00:10:40;8.53;;;6.00;;
69795;SDS011;57073;45.650;9.612;2023-05-10T00:15:41;9.52;;;5.78;;
69795;SDS011;57073;45.650;9.612;2023-05-10T00:20:41;9.10;;;5.70;;
69795;SDS011;57073;45.650;9.612;2023-05-10T00:25:41;9.03;;;5.47;;
69795;SDS011;57073;45.650;9.612;2023-05-10T00:30:42;8.83;;;5.80;;
69795;SDS011;57073;45.650;9.612;2023-05-10T00:35:42;7.95;;;5.30;;
69795;SDS011;57073;45.650;9.612;2023-05-10T00:40:42;7.43;;;5.10;;
69795;SDS011;57073;45.650;9.612;2023-05-10T00:45:43;8.75;;;5.20;;
69795;SDS011;57073;45.650;9.612;2023-05-10T00:50:43;7.37;;;4.87;;
69795;SDS011;57073;45.650;9.612;2023-05-10T00:55:44;6.83;;;4.83;;
69795;SDS011;57073;45.650;9.612;2023-05-10T01:00:45;8.40;;;4.60;;
69795;SDS011;57073;45.650;9.612;2023-05-10T01:05:46;7.37;;;5.00;;
69795;SDS011;57073;45.650;9.612;2023-05-10T01:10:46;6.40;;;4.10;;
69795;SDS011;57073;45.650;9.612;2023-05-10T01:15:49;8.40;;;4.88;;
69795;SDS011;57073;45.650;9.612;2023-05-10T01:20:52;6.97;;;4.73;;
69795;SDS011;57073;45.650;9.612;2023-05-10T01:37:10;7.35;;;4.47;;
69795;SDS011;57073;45.650;9.612;2023-05-10T01:42:20;7.70;;;4.50;;
69795;SDS011;57073;45.650;9.612;2023-05-10T01:52:41;6.55;;;4.30;;
69795;SDS011;57073;45.650;9.612;2023-05-10T01:57:44;6.00;;;3.63;;
69795;SDS011;57073;45.650;9.612;2023-05-10T02:02:48;5.33;;;4.03;;
69795;SDS011;57073;45.650;9.612;2023-05-10T02:07:50;7.00;;;4.10;;
69795;SDS011;57073;45.650;9.612;2023-05-10T02:12:52;7.10;;;4.07;;
69795;SDS011;57073;45.650;9.612;2023-05-10T02:17:56;6.82;;;4.05;;
69795;SDS011;57073;45.650;9.612;2023-05-10T02:22:58;6.35;;;4.10;;
69795;SDS011;57073;45.650;9.612;2023-05-10T02:28:01;6.27;;;4.07;;
69795;SDS011;57073;45.650;9.612;2023-05-10T02:33:04;6.40;;;4.25;;
69795;SDS011;57073;45.650;9.612;2023-05-10T02:38:05;5.83;;;4.10;;
69795;SDS011;57073;45.650;9.612;2023-05-10T02:43:07;6.53;;;4.07;;
69795;SDS011;57073;45.650;9.612;2023-05-10T02:48:11;5.88;;;3.63;;
69795;SDS011;57073;45.650;9.612;2023-05-10T02:53:15;5.97;;;3.90;;
69795;SDS011;57073;45.650;9.612;2023-05-10T02:58:20;4.70;;;3.33;;
69795;SDS011;57073;45.650;9.612;2023-05-10T03:03:21;5.30;;;3.58;;
69795;SDS011;57073;45.650;9.612;2023-05-10T03:08:22;5.43;;;3.73;;
69795;SDS011;57073;45.650;9.612;2023-05-10T03:13:36;4.93;;;3.40;;
69795;SDS011;57073;45.650;9.612;2023-05-10T03:18:48;5.17;;;3.20;;
69795;SDS011;57073;45.650;9.612;2023-05-10T03:24:05;5.88;;;3.20;;
69795;SDS011;57073;45.650;9.612;2023-05-10T03:29:08;5.30;;;3.20;;
69795;SDS011;57073;45.650;9.612;2023-05-10T03:34:08;4.00;;;2.80;;
69795;SDS011;57073;45.650;9.612;2023-05-10T03:39:09;3.70;;;2.80;;
69795;SDS011;57073;45.650;9.612;2023-05-10T03:44:10;4.43;;;2.97;;
69795;SDS011;57073;45.650;9.612;2023-05-10T03:49:10;4.60;;;2.90;;
69795;SDS011;57073;45.650;9.612;2023-05-10T03:54:11;5.00;;;3.00;;
69795;SDS011;57073;45.650;9.612;2023-05-10T03:59:11;4.90;;;3.40;;
69795;SDS011;57073;45.650;9.612;2023-05-10T04:04:12;4.60;;;3.00;;
69795;SDS011;57073;45.650;9.612;2023-05-10T04:09:12;8.17;;;2.90;;
69795;SDS011;57073;45.650;9.612;2023-05-10T04:14:12;5.50;;;3.43;;
69795;SDS011;57073;45.650;9.612;2023-05-10T04:19:13;5.63;;;3.00;;
69795;SDS011;57073;45.650;9.612;2023-05-10T04:24:13;4.27;;;2.50;;
69795;SDS011;57073;45.650;9.612;2023-05-10T04:29:13;4.00;;;2.90;;
69795;SDS011;57073;45.650;9.612;2023-05-10T04:34:14;4.50;;;2.97;;
69795;SDS011;57073;45.650;9.612;2023-05-10T04:39:14;7.20;;;3.40;;
69795;SDS011;57073;45.650;9.612;2023-05-10T04:44:14;4.60;;;2.97;;
69795;SDS011;57073;45.650;9.612;2023-05-10T04:49:15;4.27;;;2.70;;
69795;SDS011;57073;45.650;9.612;2023-05-10T04:54:15;4.90;;;2.60;;
69795;SDS011;57073;45.650;9.612;2023-05-10T04:59:16;5.40;;;2.97;;
69795;SDS011;57073;45.650;9.612;2023-05-10T05:04:17;5.10;;;3.33;;
69795;SDS011;57073;45.650;9.612;2023-05-10T05:09:17;6.03;;;3.43;;
69795;SDS011;57073;45.650;9.612;2023-05-10T05:14:17;4.27;;;2.93;;
69795;SDS011;57073;45.650;9.612;2023-05-10T05:19:18;4.57;;;3.40;;
69795;SDS011;57073;45.650;9.612;2023-05-10T05:24:18;5.00;;;3.17;;
69795;SDS011;57073;45.650;9.612;2023-05-10T05:29:19;5.90;;;3.17;;
69795;SDS011;57073;45.650;9.612;2023-05-10T05:34:19;4.60;;;3.47;;
69795;SDS011;57073;45.650;9.612;2023-05-10T05:39:20;4.85;;;3.17;;
69795;SDS011;57073;45.650;9.612;2023-05-10T05:44:20;4.40;;;2.70;;
69795;SDS011;57073;45.650;9.612;2023-05-10T05:49:21;5.53;;;3.20;;
69795;SDS011;57073;45.650;9.612;2023-05-10T05:54:21;6.27;;;2.83;;
69795;SDS011;57073;45.650;9.612;2023-05-10T05:59:22;8.17;;;3.33;;
69795;SDS011;57073;45.650;9.612;2023-05-10T06:04:22;4.60;;;3.00;;
69795;SDS011;57073;45.650;9.612;2023-05-10T06:09:22;6.23;;;3.80;;
69795;SDS011;57073;45.650;9.612;2023-05-10T06:14:24;5.57;;;3.33;;
69795;SDS011;57073;45.650;9.612;2023-05-10T06:19:24;5.20;;;3.50;;
69795;SDS011;57073;45.650;9.612;2023-05-10T06:24:26;6.75;;;3.70;;
69795;SDS011;57073;45.650;9.612;2023-05-10T06:29:27;6.23;;;3.40;;
69795;SDS011;57073;45.650;9.612;2023-05-10T06:34:27;5.10;;;3.13;;
69795;SDS011;57073;45.650;9.612;2023-05-10T06:39:27;4.73;;;3.10;;
69795;SDS011;57073;45.650;9.612;2023-05-10T06:44:28;6.22;;;3.30;;
69795;SDS011;57073;45.650;9.612;2023-05-10T06:49:29;5.17;;;3.57;;
69795;SDS011;57073;45.650;9.612;2023-05-10T06:54:29;6.87;;;3.40;;
69795;SDS011;57073;45.650;9.612;2023-05-10T06:59:29;5.00;;;3.40;;
69795;SDS011;57073;45.650;9.612;2023-05-10T07:04:30;4.77;;;3.60;;
69795;SDS011;57073;45.650;9.612;2023-05-10T07:09:30;4.83;;;3.50;;
69795;SDS011;57073;45.650;9.612;2023-05-10T07:14:31;5.88;;;3.53;;
69795;SDS011;57073;45.650;9.612;2023-05-10T07:19:31;8.40;;;4.40;;
69795;SDS011;57073;45.650;9.612;2023-05-10T07:24:32;6.88;;;3.92;;
69795;SDS011;57073;45.650;9.612;2023-05-10T07:29:33;7.47;;;4.17;;
69795;SDS011;57073;45.650;9.612;2023-05-10T07:34:33;6.28;;;3.90;;
69795;SDS011;57073;45.650;9.612;2023-05-10T07:39:34;5.27;;;3.80;;
69795;SDS011;57073;45.650;9.612;2023-05-10T07:44:34;6.07;;;3.97;;
69795;SDS011;57073;45.650;9.612;2023-05-10T07:49:35;6.23;;;4.00;;
69795;SDS011;57073;45.650;9.612;2023-05-10T07:54:35;5.38;;;3.70;;
69795;SDS011;57073;45.650;9.612;2023-05-10T07:59:35;6.60;;;4.10;;
69795;SDS011;57073;45.650;9.612;2023-05-10T08:04:36;6.70;;;4.30;;
69795;SDS011;57073;45.650;9.612;2023-05-10T08:09:36;7.33;;;4.20;;
69795;SDS011;57073;45.650;9.612;2023-05-10T08:14:37;6.77;;;4.40;;
69795;SDS011;57073;45.650;9.612;2023-05-10T08:19:37;6.87;;;4.50;;
69795;SDS011;57073;45.650;9.612;2023-05-10T08:24:37;5.93;;;4.50;;
69795;SDS011;57073;45.650;9.612;2023-05-10T08:29:38;6.03;;;4.10;;
69795;SDS011;57073;45.650;9.612;2023-05-10T08:34:39;6.40;;;4.40;;
69795;SDS011;57073;45.650;9.612;2023-05-10T08:39:39;5.93;;;4.40;;
69795;SDS011;57073;45.650;9.612;2023-05-10T08:44:40;5.30;;;3.90;;
69795;SDS011;57073;45.650;9.612;2023-05-10T08:49:41;5.80;;;4.30;;
69795;SDS011;57073;45.650;9.612;2023-05-10T08:54:44;6.00;;;4.77;;
69795;SDS011;57073;45.650;9.612;2023-05-10T08:59:45;6.07;;;4.67;;
69795;SDS011;57073;45.650;9.612;2023-05-10T09:04:46;6.57;;;4.80;;
69795;SDS011;57073;45.650;9.612;2023-05-10T09:09:48;8.68;;;5.18;;
69795;SDS011;57073;45.650;9.612;2023-05-10T09:14:50;6.80;;;5.03;;
69795;SDS011;57073;45.650;9.612;2023-05-10T09:20:02;7.07;;;5.18;;
69795;SDS011;57073;45.650;9.612;2023-05-10T09:30:06;7.20;;;5.68;;
69795;SDS011;57073;45.650;9.612;2023-05-10T09:35:11;8.27;;;5.32;;
69795;SDS011;57073;45.650;9.612;2023-05-10T09:40:14;8.27;;;5.80;;
69795;SDS011;57073;45.650;9.612;2023-05-10T09:45:15;7.90;;;5.60;;
69795;SDS011;57073;45.650;9.612;2023-05-10T09:50:16;7.33;;;5.27;;
69795;SDS011;57073;45.650;9.612;2023-05-10T09:55:21;7.97;;;4.93;;
69795;SDS011;57073;45.650;9.612;2023-05-10T10:00:22;8.65;;;5.30;;
69795;SDS011;57073;45.650;9.612;2023-05-10T10:10:30;8.70;;;4.90;;
69795;SDS011;57073;45.650;9.612;2023-05-10T10:15:32;7.23;;;5.10;;
69795;SDS011;57073;45.650;9.612;2023-05-10T10:20:33;7.57;;;5.60;;
69795;SDS011;57073;45.650;9.612;2023-05-10T10:25:34;6.97;;;5.13;;
69795;SDS011;57073;45.650;9.612;2023-05-10T10:30:41;8.40;;;4.97;;
69795;SDS011;57073;45.650;9.612;2023-05-10T10:35:43;7.53;;;5.57;;
69795;SDS011;57073;45.650;9.612;2023-05-10T10:40:46;7.47;;;6.07;;
69795;SDS011;57073;45.650;9.612;2023-05-10T10:46:09;6.35;;;5.00;;
69795;SDS011;57073;45.650;9.612;2023-05-10T10:51:17;7.27;;;4.90;;
69795;SDS011;57073;45.650;9.612;2023-05-10T10:56:17;5.40;;;4.43;;
69795;SDS011;57073;45.650;9.612;2023-05-10T11:01:23;4.95;;;4.43;;
69795;SDS011;57073;45.650;9.612;2023-05-10T11:06:30;5.37;;;4.10;;
69795;SDS011;57073;45.650;9.612;2023-05-10T11:11:34;6.32;;;4.10;;
69795;SDS011;57073;45.650;9.612;2023-05-10T11:16:42;7.20;;;4.50;;
69795;SDS011;57073;45.650;9.612;2023-05-10T11:26:48;4.90;;;4.20;;
69795;SDS011;57073;45.650;9.612;2023-05-10T11:31:50;8.63;;;5.40;;
69795;SDS011;57073;45.650;9.612;2023-05-10T11:36:51;7.32;;;5.05;;
69795;SDS011;57073;45.650;9.612;2023-05-10T11:41:54;5.77;;;4.70;;
69795;SDS011;57073;45.650;9.612;2023-05-10T11:46:54;5.93;;;4.65;;
69795;SDS011;57073;45.650;9.612;2023-05-10T11:52:05;7.97;;;4.77;;
69795;SDS011;57073;45.650;9.612;2023-05-10T11:57:06;6.07;;;5.13;;
69795;SDS011;57073;45.650;9.612;2023-05-10T12:02:06;6.10;;;4.87;;
69795;SDS011;57073;45.650;9.612;2023-05-10T12:07:07;6.30;;;5.27;;
69795;SDS011;57073;45.650;9.612;2023-05-10T12:12:07;6.10;;;5.00;;
69795;SDS011;57073;45.650;9.612;2023-05-10T12:17:11;8.40;;;5.07;;
69795;SDS011;57073;45.650;9.612;2023-05-10T12:22:12;7.65;;;5.65;;
69795;SDS011;57073;45.650;9.612;2023-05-10T12:27:13;7.33;;;5.60;;
69795;SDS011;57073;45.650;9.612;2023-05-10T12:32:14;7.47;;;5.67;;
69795;SDS011;57073;45.650;9.612;2023-05-10T12:37:15;6.83;;;5.20;;
69795;SDS011;57073;45.650;9.612;2023-05-10T12:42:15;7.05;;;5.55;;
69795;SDS011;57073;45.650;9.612;2023-05-10T12:47:16;7.50;;;5.80;;
69795;SDS011;57073;45.650;9.612;2023-05-10T12:52:16;6.63;;;5.50;;
69795;SDS011;57073;45.650;9.612;2023-05-10T12:57:17;7.40;;;5.70;;
69795;SDS011;57073;45.650;9.612;2023-05-10T13:02:17;8.30;;;6.20;;
69795;SDS011;57073;45.650;9.612;2023-05-10T13:07:18;6.40;;;5.55;;
69795;SDS011;57073;45.650;9.612;2023-05-10T13:12:18;7.30;;;5.70;;
69795;SDS011;57073;45.650;9.612;2023-05-10T13:17:18;8.03;;;6.17;;
69795;SDS011;57073;45.650;9.612;2023-05-10T13:22:19;8.37;;;5.90;;
69795;SDS011;57073;45.650;9.612;2023-05-10T13:27:19;7.50;;;6.30;;
69795;SDS011;57073;45.650;9.612;2023-05-10T13:32:20;7.67;;;6.13;;
69795;SDS011;57073;45.650;9.612;2023-05-10T13:37:21;8.70;;;5.93;;
69795;SDS011;57073;45.650;9.612;2023-05-10T13:42:21;8.43;;;6.60;;
69795;SDS011;57073;45.650;9.612;2023-05-10T13:47:23;9.87;;;7.17;;
69795;SDS011;57073;45.650;9.612;2023-05-10T13:52:23;8.70;;;7.10;;
69795;SDS011;57073;45.650;9.612;2023-05-10T13:57:23;9.97;;;7.07;;
69795;SDS011;57073;45.650;9.612;2023-05-10T14:02:24;8.45;;;6.57;;
69795;SDS011;57073;45.650;9.612;2023-05-10T14:07:25;11.27;;;6.73;;
69795;SDS011;57073;45.650;9.612;2023-05-10T14:12:26;9.90;;;6.77;;
69795;SDS011;57073;45.650;9.612;2023-05-10T14:17:26;7.65;;;6.00;;
69795;SDS011;57073;45.650;9.612;2023-05-10T14:22:26;7.50;;;5.97;;
69795;SDS011;57073;45.650;9.612;2023-05-10T14:27:27;8.63;;;6.83;;
69795;SDS011;57073;45.650;9.612;2023-05-10T14:32:27;7.97;;;6.10;;
69795;SDS011;57073;45.650;9.612;2023-05-10T14:37:28;9.63;;;6.70;;
69795;SDS011;57073;45.650;9.612;2023-05-10T14:42:28;8.80;;;6.73;;
69795;SDS011;57073;45.650;9.612;2023-05-10T14:47:28;9.43;;;6.75;;
69795;SDS011;57073;45.650;9.612;2023-05-10T14:52:29;8.30;;;6.33;;
69795;SDS011;57073;45.650;9.612;2023-05-10T14:57:29;10.70;;;6.17;;
69795;SDS011;57073;45.650;9.612;2023-05-10T15:02:33;8.93;;;6.80;;
69795;SDS011;57073;45.650;9.612;2023-05-10T15:07:33;10.02;;;7.40;;
69795;SDS011;57073;45.650;9.612;2023-05-10T15:12:33;9.37;;;7.60;;
69795;SDS011;57073;45.650;9.612;2023-05-10T15:17:34;9.07;;;7.10;;
69795;SDS011;57073;45.650;9.612;2023-05-10T15:22:34;11.03;;;7.67;;
69795;SDS011;57073;45.650;9.612;2023-05-10T15:27:35;9.63;;;7.27;;
69795;SDS011;57073;45.650;9.612;2023-05-10T15:32:35;9.33;;;7.70;;
69795;SDS011;57073;45.650;9.612;2023-05-10T15:37:36;10.00;;;7.40;;
69795;SDS011;57073;45.650;9.612;2023-05-10T15:42:37;10.27;;;6.85;;
69795;SDS011;57073;45.650;9.612;2023-05-10T15:47:37;7.57;;;6.40;;
69795;SDS011;57073;45.650;9.612;2023-05-10T15:52:39;10.23;;;6.43;;
69795;SDS011;57073;45.650;9.612;2023-05-10T15:57:40;6.80;;;5.80;;
69795;SDS011;57073;45.650;9.612;2023-05-10T16:02:41;7.00;;;5.95;;
69795;SDS011;57073;45.650;9.612;2023-05-10T16:07:41;6.27;;;5.23;;
69795;SDS011;57073;45.650;9.612;2023-05-10T16:12:42;6.87;;;5.90;;
69795;SDS011;57073;45.650;9.612;2023-05-10T16:17:42;6.07;;;5.27;;
69795;SDS011;57073;45.650;9.612;2023-05-10T16:22:43;7.07;;;5.87;;
69795;SDS011;57073;45.650;9.612;2023-05-10T16:27:43;7.20;;;5.43;;
69795;SDS011;57073;45.650;9.612;2023-05-10T16:32:43;8.30;;;5.30;;
69795;SDS011;57073;45.650;9.612;2023-05-10T16:37:44;6.33;;;5.60;;
69795;SDS011;57073;45.650;9.612;2023-05-10T16:42:44;9.70;;;6.00;;
69795;SDS011;57073;45.650;9.612;2023-05-10T16:47:45;10.07;;;6.50;;
69795;SDS011;57073;45.650;9.612;2023-05-10T16:52:45;11.03;;;6.57;;
69795;SDS011;57073;45.650;9.612;2023-05-10T16:57:46;7.23;;;5.53;;
69795;SDS011;57073;45.650;9.612;2023-05-10T17:02:46;9.60;;;6.93;;
69795;SDS011;57073;45.650;9.612;2023-05-10T17:07:47;7.95;;;6.22;;
69795;SDS011;57073;45.650;9.612;2023-05-10T17:12:48;7.43;;;6.17;;
69795;SDS011;57073;45.650;9.612;2023-05-10T17:17:49;8.77;;;6.70;;
69795;SDS011;57073;45.650;9.612;2023-05-10T17:22:49;9.17;;;6.50;;
69795;SDS011;57073;45.650;9.612;2023-05-10T17:27:49;8.13;;;6.30;;
69795;SDS011;57073;45.650;9.612;2023-05-10T17:32:50;7.43;;;6.23;;
69795;SDS011;57073;45.650;9.612;2023-05-10T17:37:51;10.93;;;7.60;;
69795;SDS011;57073;45.650;9.612;2023-05-10T17:42:51;9.63;;;7.22;;
69795;SDS011;57073;45.650;9.612;2023-05-10T17:47:52;11.23;;;7.73;;
69795;SDS011;57073;45.650;9.612;2023-05-10T17:52:52;10.00;;;7.70;;
69795;SDS011;57073;45.650;9.612;2023-05-10T17:57:52;11.75;;;7.50;;
69795;SDS011;57073;45.650;9.612;2023-05-10T18:02:53;10.47;;;7.60;;
69795;SDS011;57073;45.650;9.612;2023-05-10T18:07:53;11.60;;;7.77;;
69795;SDS011;57073;45.650;9.612;2023-05-10T18:12:54;12.00;;;8.53;;
69795;SDS011;57073;45.650;9.612;2023-05-10T18:17:54;11.13;;;8.33;;
69795;SDS011;57073;45.650;9.612;2023-05-10T18:22:55;13.90;;;8.57;;
69795;SDS011;57073;45.650;9.612;2023-05-10T18:27:59;12.00;;;8.15;;
69795;SDS011;57073;45.650;9.612;2023-05-10T18:32:59;9.80;;;7.00;;
69795;SDS011;57073;45.650;9.612;2023-05-10T18:37:59;10.77;;;7.93;;
69795;SDS011;57073;45.650;9.612;2023-05-10T18:43:01;10.40;;;7.87;;
69795;SDS011;57073;45.650;9.612;2023-05-10T18:48:02;11.70;;;7.90;;
69795;SDS011;57073;45.650;9.612;2023-05-10T18:53:03;11.27;;;7.33;;
69795;SDS011;57073;45.650;9.612;2023-05-10T18:58:03;11.82;;;7.50;;
69795;SDS011;57073;45.650;9.612;2023-05-10T19:03:03;10.43;;;7.70;;
69795;SDS011;57073;45.650;9.612;2023-05-10T19:08:04;10.60;;;7.50;;
69795;SDS011;57073;45.650;9.612;2023-05-10T19:13:04;11.48;;;7.70;;
69795;SDS011;57073;45.650;9.612;2023-05-10T19:18:05;12.93;;;9.00;;
69795;SDS011;57073;45.650;9.612;2023-05-10T19:23:06;11.07;;;8.53;;
69795;SDS011;57073;45.650;9.612;2023-05-10T19:28:07;12.38;;;8.68;;
69795;SDS011;57073;45.650;9.612;2023-05-10T19:33:08;13.00;;;9.00;;
69795;SDS011;57073;45.650;9.612;2023-05-10T19:38:09;16.30;;;9.50;;
69795;SDS011;57073;45.650;9.612;2023-05-10T19:43:09;15.13;;;10.17;;
69795;SDS011;57073;45.650;9.612;2023-05-10T19:48:10;17.00;;;10.67;;
69795;SDS011;57073;45.650;9.612;2023-05-10T19:53:10;17.55;;;10.98;;
69795;SDS011;57073;45.650;9.612;2023-05-10T19:58:11;16.80;;;10.40;;
69795;SDS011;57073;45.650;9.612;2023-05-10T20:03:11;16.17;;;10.80;;
69795;SDS011;57073;45.650;9.612;2023-05-10T20:08:12;16.00;;;11.07;;
69795;SDS011;57073;45.650;9.612;2023-05-10T20:13:12;15.80;;;10.85;;
69795;SDS011;57073;45.650;9.612;2023-05-10T20:18:13;20.90;;;11.50;;
69795;SDS011;57073;45.650;9.612;2023-05-10T20:23:13;17.67;;;10.73;;
69795;SDS011;57073;45.650;9.612;2023-05-10T20:28:14;19.90;;;12.17;;
69795;SDS011;57073;45.650;9.612;2023-05-10T20:33:21;22.92;;;13.63;;
69795;SDS011;57073;45.650;9.612;2023-05-10T20:38:22;21.90;;;13.83;;
69795;SDS011;57073;45.650;9.612;2023-05-10T20:43:23;18.40;;;11.33;;
69795;SDS011;57073;45.650;9.612;2023-05-10T20:48:23;18.07;;;12.10;;
69795;SDS011;57073;45.650;9.612;2023-05-10T20:53:23;19.67;;;12.00;;
69795;SDS011;57073;45.650;9.612;2023-05-10T20:58:24;18.90;;;12.30;;
69795;SDS011;57073;45.650;9.612;2023-05-10T21:03:24;21.73;;;12.40;;
69795;SDS011;57073;45.650;9.612;2023-05-10T21:08:25;19.00;;;12.00;;
69795;SDS011;57073;45.650;9.612;2023-05-10T21:13:25;20.23;;;13.63;;
69795;SDS011;57073;45.650;9.612;2023-05-10T21:18:25;21.73;;;13.73;;
69795;SDS011;57073;45.650;9.612;2023-05-10T21:23:26;25.10;;;14.13;;
69795;SDS011;57073;45.650;9.612;2023-05-10T21:28:26;21.77;;;13.47;;
69795;SDS011;57073;45.650;9.612;2023-05-10T21:33:26;23.20;;;13.17;;
69795;SDS011;57073;45.650;9.612;2023-05-10T21:38:27;21.47;;;14.13;;
69795;SDS011;57073;45.650;9.612;2023-05-10T21:43:27;22.27;;;14.30;;
69795;SDS011;57073;45.650;9.612;2023-05-10T21:48:28;21.17;;;13.53;;
69795;SDS011;57073;45.650;9.612;2023-05-10T21:53:28;20.50;;;12.90;;
69795;SDS011;57073;45.650;9.612;2023-05-10T21:58:28;21.27;;;13.40;;
69795;SDS011;57073;45.650;9.612;2023-05-10T22:03:29;22.47;;;13.63;;
69795;SDS011;57073;45.650;9.612;2023-05-10T22:08:29;20.87;;;12.67;;
69795;SDS011;57073;45.650;9.612;2023-05-10T22:13:30;22.73;;;13.63;;
69795;SDS011;57073;45.650;9.612;2023-05-10T22:18:30;22.03;;;12.80;;
69795;SDS011;57073;45.650;9.612;2023-05-10T22:23:30;21.47;;;13.30;;
69795;SDS011;57073;45.650;9.612;2023-05-10T22:28:31;19.43;;;11.30;;
69795;SDS011;57073;45.650;9.612;2023-05-10T22:33:31;19.17;;;10.70;;
69795;SDS011;57073;45.650;9.612;2023-05-10T22:38:31;16.97;;;10.07;;
69795;SDS011;57073;45.650;9.612;2023-05-10T22:43:32;15.33;;;9.80;;
69795;SDS011;57073;45.650;9.612;2023-05-10T22:48:33;15.30;;;9.77;;
69795;SDS011;57073;45.650;9.612;2023-05-10T22:53:33;15.20;;;9.60;;
69795;SDS011;57073;45.650;9.612;2023-05-10T22:58:34;16.30;;;9.90;;
69795;SDS011;57073;45.650;9.612;2023-05-10T23:03:34;14.37;;;9.30;;
69795;SDS011;57073;45.650;9.612;2023-05-10T23:08:35;15.60;;;9.57;;
69795;SDS011;57073;45.650;9.612;2023-05-10T23:13:35;17.53;;;9.30;;
69795;SDS011;57073;45.650;9.612;2023-05-10T23:18:35;15.30;;;9.10;;
69795;SDS011;57073;45.650;9.612;2023-05-10T23:23:36;16.80;;;9.17;;
69795;SDS011;57073;45.650;9.612;2023-05-10T23:28:36;16.00;;;8.90;;
69795;SDS011;57073;45.650;9.612;2023-05-10T23:33:37;17.02;;;9.52;;
69795;SDS011;57073;45.650;9.612;2023-05-10T23:38:37;16.93;;;10.07;;
69795;SDS011;57073;45.650;9.612;2023-05-10T23:43:38;19.10;;;10.87;;
69795;SDS011;57073;45.650;9.612;2023-05-10T23:48:38;20.27;;;11.40;;
69795;SDS011;57073;45.650;9.612;2023-05-10T23:53:39;21.77;;;12.87;;
69795;SDS011;57073;45.650;9.612;2023-05-10T23:58:39;24.90;;;12.57;;
